Aeroporto :
LOGIN :

Iscrizione | Disclaimer

   EN    FR    IT 

 










Sommario :    VFR   VFR Marginale   IFR   IFR Intensivo   IFR Molto Intensivo
Visibilità : 
Base nubi : 
>= 8 km
>= 3000ft
5 / 8 km
1000 / 3000 ft
1500m / 5 km
500 / 1000 ft
800 / 1500m
200 / 500 ft
< 800m
< 200 ft
Simboli :   Temporali  Nebbia  Neve Forte  Precipitazioni Forti  Vento > 20 kt
SIGMETs :   Varie  Temporali  Ghiacco  Turbolenza  Onda orograficha  Ceneri Vulcaniche






- Altitudine del aeroporto : 80 ft
- Codice IATA : LPL


EGGP - Liverpool John Lennon

ULTIMO METAR :
  • 151720Z 34010KT 9999 FEW029 07/06 Q1009

METARs OBSOLETI :
  • 151650Z 34010KT 9999 FEW028 08/06 Q1009
  • 151620Z 34007KT 9999 -SHRA SCT025 SCT032 08/07 Q1009
  • 151550Z 35009KT 9999 VCSH FEW032 SCT048 08/06 Q1009
  • 151520Z 06004KT 020V100 9999 VCSH SCT022 BKN032 08/07 Q1010
  • 151450Z 03008KT 9999 8000N -SHRA FEW014 SCT022 BKN040 09/06 Q1010

TAF TAF EGGP
Valido dal 15 a 18 ore il 16 a 18 ore UTC


151702Z 1518/1618 35009KT 9999 SCT035
PROB30
TEMPO 1600/1606 8000 -RA BKN012
TEMPO 1606/1618 5000 -RADZ BKN010
ATIS : +44 151 907 2000 (option 5 or ext 5150)
Met : +44 871 750 5150



MetMap, La meteo Aeronautica in un colpo d'occhio ! - Copyright ORBIFLY Dicembre 2007 - Disclaimer

ORBIFLY MET'MAP TEAM :

Programmazione e sviluppo : Alexandra Zaïnal
Concezione e sviluppo : Baudouin d'Aumeries
Co-Programmazione e sviluppo : Marc-Olivier Méhu
Supporto tecnico e logistico : Manuel Goepfert
Aiuto per la traduzione : Arnaldo La Scala

Contatto : metmap@orbifly.com




FONTI E CREDITI :

   NOAA